Time;durP1;ratioP1;P1;durP2;ratioP2;P2;SDS_P1;SDS_P2;PMS_P1;PMS_P2;Temp;Humidity;BMP_temperature;BMP_pressure;BME280_temperature;BME280_humidity;BME280_pressure;Samples;Min_cycle;Max_cycle;Signal;HPM_P1;HPM_P2
2022/05/19 00:01:06;;;;;;;3.08;2.20;;;18.90;99.90;;;;;;5033940;28;20755;-59
2022/05/19 00:03:34;;;;;;;2.72;2.17;;;18.80;99.90;;;;;;5034091;28;20207;-58
2022/05/19 00:06:04;;;;;;;2.40;2.05;;;18.80;99.90;;;;;;5033768;28;20260;-58
2022/05/19 00:08:31;;;;;;;4.72;2.20;;;18.70;99.90;;;;;;5033289;28;20292;-59
2022/05/19 00:11:02;;;;;;;4.20;2.10;;;18.70;99.90;;;;;;5033742;28;20206;-60
2022/05/19 00:13:31;;;;;;;5.57;2.28;;;18.60;99.90;;;;;;5034145;28;20213;-58
2022/05/19 00:15:58;;;;;;;3.50;2.28;;;18.60;99.90;;;;;;5033791;28;20286;-58
2022/05/19 00:18:25;;;;;;;2.40;2.20;;;18.60;99.90;;;;;;5033796;28;20198;-58
2022/05/19 00:20:52;;;;;;;2.83;2.20;;;18.50;99.90;;;;;;5033568;28;20298;-58
2022/05/19 00:23:20;;;;;;;3.08;2.13;;;18.50;99.90;;;;;;5033480;28;20206;-59
2022/05/19 00:25:47;;;;;;;2.30;2.10;;;18.40;99.90;;;;;;5033424;28;20213;-57
2022/05/19 00:28:15;;;;;;;2.72;2.13;;;18.40;99.90;;;;;;5033548;28;20273;-59
2022/05/19 00:30:42;;;;;;;3.60;2.20;;;18.30;99.90;;;;;;5033404;28;20234;-58
2022/05/19 00:33:09;;;;;;;2.22;1.80;;;18.20;99.90;;;;;;5033345;28;20717;-58
2022/05/19 00:35:36;;;;;;;4.85;1.95;;;18.10;99.90;;;;;;5033179;28;20292;-58
2022/05/19 00:38:03;;;;;;;6.07;2.33;;;18.10;99.90;;;;;;5033178;28;20617;-59
2022/05/19 00:40:32;;;;;;;2.83;1.98;;;18.00;99.90;;;;;;5033096;28;20622;-58
2022/05/19 00:42:59;;;;;;;2.75;2.05;;;17.80;99.90;;;;;;5033219;28;20210;-57
2022/05/19 00:45:28;;;;;;;3.10;2.33;;;17.70;99.90;;;;;;5033033;28;20202;-58
2022/05/19 00:47:59;;;;;;;4.47;2.03;;;17.60;99.90;;;;;;5032932;28;20222;-59
2022/05/19 00:50:30;;;;;;;3.45;1.75;;;17.50;99.90;;;;;;5032867;28;20230;-59
2022/05/19 00:53:01;;;;;;;3.42;1.98;;;17.40;99.90;;;;;;5033168;28;20221;-59
2022/05/19 00:55:34;;;;;;;2.20;2.00;;;17.30;99.90;;;;;;5032861;28;20210;-61
2022/05/19 00:58:06;;;;;;;3.10;2.17;;;17.30;99.90;;;;;;5032924;28;20209;-58
2022/05/19 01:00:33;;;;;;;3.80;2.00;;;17.30;99.90;;;;;;5032843;28;20233;-58
2022/05/19 01:03:01;;;;;;;3.00;1.95;;;17.20;99.90;;;;;;5032681;28;20214;-58
2022/05/19 01:05:34;;;;;;;5.67;1.97;;;17.10;99.90;;;;;;5032696;28;20206;-59
2022/05/19 01:08:08;;;;;;;4.07;1.90;;;17.10;99.90;;;;;;5032816;28;20301;-58
2022/05/19 01:10:37;;;;;;;3.40;2.00;;;17.00;99.90;;;;;;5032430;28;20280;-58
2022/05/19 01:13:05;;;;;;;3.77;2.10;;;17.00;99.90;;;;;;5032601;28;20279;-57
2022/05/19 01:15:34;;;;;;;4.73;2.13;;;17.10;99.90;;;;;;5032216;28;20280;-59
2022/05/19 01:18:01;;;;;;;3.13;1.77;;;17.10;99.90;;;;;;5032615;28;20202;-59
2022/05/19 01:20:28;;;;;;;5.87;2.00;;;17.10;99.90;;;;;;5031437;28;20285;-58
2022/05/19 01:23:00;;;;;;;5.30;1.90;;;17.20;99.90;;;;;;5032455;28;20561;-58
2022/05/19 01:25:37;;;;;;;4.33;2.07;;;17.20;99.90;;;;;;5032239;28;20230;-58
2022/05/19 01:28:05;;;;;;;3.60;2.10;;;17.20;99.90;;;;;;5032204;28;20230;-58
2022/05/19 01:30:32;;;;;;;5.13;2.20;;;17.20;99.90;;;;;;5032436;28;20233;-58
2022/05/19 01:33:00;;;;;;;4.20;2.00;;;17.20;99.90;;;;;;5032139;28;20210;-58
2022/05/19 01:35:32;;;;;;;4.10;1.97;;;17.20;99.90;;;;;;5032161;28;20360;-57
2022/05/19 01:37:59;;;;;;;2.50;1.80;;;17.30;99.90;;;;;;5032296;28;20217;-58
2022/05/19 01:40:41;;;;;;;3.23;1.87;;;17.40;99.90;;;;;;5032022;28;20222;-58
2022/05/19 01:43:20;;;;;;;2.60;1.70;;;17.50;99.90;;;;;;5032287;28;20632;-58
2022/05/19 01:46:01;;;;;;;3.83;1.80;;;17.50;99.90;;;;;;5031849;28;20732;-58
2022/05/19 01:48:39;;;;;;;3.50;1.90;;;17.50;99.90;;;;;;5031836;28;20601;-58
2022/05/19 01:51:13;;;;;;;2.00;1.67;;;17.50;99.90;;;;;;5032210;28;20205;-57
2022/05/19 01:53:47;;;;;;;2.90;2.20;;;17.50;99.90;;;;;;5032274;28;20637;-58
2022/05/19 01:56:20;;;;;;;5.33;2.10;;;17.60;99.90;;;;;;5031891;28;20206;-59
2022/05/19 01:58:53;;;;;;;3.47;1.60;;;17.50;99.90;;;;;;5031662;28;20222;-57
2022/05/19 02:01:26;;;;;;;3.53;1.97;;;17.50;99.90;;;;;;5031869;28;20757;-58
2022/05/19 02:03:58;;;;;;;3.03;2.20;;;17.50;99.90;;;;;;5032114;28;20264;-58
2022/05/19 02:06:30;;;;;;;2.30;1.70;;;17.50;99.90;;;;;;5031685;28;20249;-58
2022/05/19 02:09:01;;;;;;;3.35;2.00;;;17.50;99.90;;;;;;5031348;28;20690;-58
2022/05/19 02:11:31;;;;;;;2.70;2.03;;;17.50;99.90;;;;;;5031721;28;20624;-57
2022/05/19 02:14:03;;;;;;;4.10;2.10;;;17.50;99.90;;;;;;5031655;28;20210;-57
2022/05/19 02:16:31;;;;;;;3.63;1.80;;;17.50;99.90;;;;;;5031773;28;20259;-58
2022/05/19 02:18:58;;;;;;;3.60;2.00;;;17.50;99.90;;;;;;5031869;28;20218;-57
2022/05/19 02:21:26;;;;;;;7.30;2.17;;;17.50;99.90;;;;;;5031894;28;20237;-58
2022/05/19 02:23:56;;;;;;;3.97;1.97;;;17.50;99.90;;;;;;5031625;28;20220;-57
2022/05/19 02:26:22;;;;;;;2.00;1.70;;;17.50;99.90;;;;;;5031306;28;20236;-58
2022/05/19 02:28:54;;;;;;;4.60;1.70;;;17.50;99.90;;;;;;5031676;28;20299;-58
2022/05/19 02:31:22;;;;;;;3.03;2.00;;;17.50;99.90;;;;;;5031793;28;20210;-58
2022/05/19 02:33:49;;;;;;;2.87;1.90;;;17.40;99.90;;;;;;5035410;28;20251;-58
2022/05/19 02:36:16;;;;;;;4.60;2.10;;;17.40;99.90;;;;;;5035307;28;20206;-58
2022/05/19 02:38:43;;;;;;;2.58;1.70;;;17.40;99.90;;;;;;5035403;28;20213;-58
2022/05/19 02:41:10;;;;;;;2.20;1.97;;;17.40;99.90;;;;;;5035518;28;20237;-58
2022/05/19 02:43:36;;;;;;;2.47;2.13;;;17.40;99.90;;;;;;5035329;28;20219;-59
2022/05/19 02:46:03;;;;;;;2.47;1.67;;;17.30;99.90;;;;;;5035287;28;20646;-58
2022/05/19 02:48:33;;;;;;;4.00;1.83;;;17.30;99.90;;;;;;5035335;28;20222;-58
2022/05/19 02:51:00;;;;;;;3.53;2.00;;;17.30;99.90;;;;;;5035218;28;20682;-58
2022/05/19 02:53:27;;;;;;;3.28;1.85;;;17.40;99.90;;;;;;5035134;28;20260;-58
2022/05/19 02:55:54;;;;;;;5.07;1.93;;;17.30;99.90;;;;;;5035037;28;20210;-58
2022/05/19 02:58:21;;;;;;;2.07;1.53;;;17.40;99.90;;;;;;5035255;28;20260;-58
2022/05/19 03:00:49;;;;;;;3.50;1.95;;;17.40;99.90;;;;;;5035157;28;20230;-58
2022/05/19 03:03:16;;;;;;;1.93;1.70;;;17.40;99.90;;;;;;5035384;28;20210;-58
2022/05/19 03:05:44;;;;;;;4.70;2.27;;;17.40;99.90;;;;;;5034902;28;20218;-59
2022/05/19 03:08:11;;;;;;;2.50;1.98;;;17.30;99.90;;;;;;5034949;28;20237;-60
2022/05/19 03:10:40;;;;;;;2.80;2.00;;;17.20;99.90;;;;;;5034784;28;20246;-58
2022/05/19 03:13:14;;;;;;;2.97;2.07;;;17.10;99.90;;;;;;5035018;28;20249;-59
2022/05/19 03:15:41;;;;;;;2.58;2.05;;;17.10;99.90;;;;;;5034666;28;20206;-60
2022/05/19 03:18:08;;;;;;;2.43;2.10;;;17.00;99.90;;;;;;5034821;28;20210;-58
2022/05/19 03:20:35;;;;;;;18.30;16.23;;;16.90;99.90;;;;;;5034580;28;20233;-59
2022/05/19 03:23:03;;;;;;;6.60;5.53;;;16.80;99.90;;;;;;5034867;28;20737;-59
2022/05/19 03:25:30;;;;;;;8.07;4.60;;;16.80;99.90;;;;;;5034481;28;20233;-59
2022/05/19 03:27:56;;;;;;;3.90;2.30;;;16.80;99.90;;;;;;5034610;28;20210;-59
2022/05/19 03:30:24;;;;;;;4.70;2.30;;;16.70;99.90;;;;;;5034187;28;20632;-57
2022/05/19 03:32:50;;;;;;;3.27;2.40;;;16.70;99.90;;;;;;5034476;28;20202;-58
2022/05/19 03:35:18;;;;;;;4.30;2.30;;;16.60;99.90;;;;;;5034061;28;20214;-58
2022/05/19 03:37:45;;;;;;;4.20;2.50;;;16.60;99.90;;;;;;5034657;28;20217;-59
2022/05/19 03:40:16;;;;;;;8.03;2.90;;;16.60;99.90;;;;;;5034275;28;20227;-58
2022/05/19 03:42:43;;;;;;;5.10;2.50;;;16.40;99.90;;;;;;5034427;28;20202;-58
2022/05/19 03:45:10;;;;;;;5.80;3.17;;;16.20;99.90;;;;;;5032904;28;20688;-58
2022/05/19 03:47:36;;;;;;;4.37;2.60;;;16.10;99.90;;;;;;5034077;28;20270;-58
2022/05/19 03:50:04;;;;;;;4.07;2.57;;;16.00;99.90;;;;;;5034142;28;20625;-58
2022/05/19 03:52:31;;;;;;;4.53;2.40;;;16.00;99.90;;;;;;5034285;28;20210;-58
2022/05/19 03:54:57;;;;;;;5.63;2.43;;;16.00;99.90;;;;;;5034082;28;20222;-59
2022/05/19 03:57:25;;;;;;;5.10;2.30;;;16.10;99.90;;;;;;5033730;28;20214;-57
2022/05/19 03:59:52;;;;;;;4.97;2.60;;;16.10;99.90;;;;;;5033778;28;20276;-57
2022/05/19 04:02:19;;;;;;;6.20;2.53;;;16.30;99.90;;;;;;5033811;28;20210;-58
2022/05/19 04:04:46;;;;;;;4.53;2.53;;;16.30;99.90;;;;;;5033931;28;20206;-59
2022/05/19 04:07:12;;;;;;;2.60;2.37;;;16.40;99.90;;;;;;5033665;28;20210;-57
2022/05/19 04:09:39;;;;;;;3.93;2.60;;;16.40;99.90;;;;;;5033354;28;20238;-58
2022/05/19 04:12:07;;;;;;;3.33;2.30;;;16.50;99.90;;;;;;5033784;28;20206;-58
2022/05/19 04:14:36;;;;;;;4.00;2.57;;;16.50;99.90;;;;;;5033614;28;20213;-59
2022/05/19 04:17:02;;;;;;;2.97;2.13;;;16.60;99.90;;;;;;5033591;28;20206;-58
2022/05/19 04:19:29;;;;;;;4.13;1.90;;;16.70;99.90;;;;;;5033829;28;20290;-59
2022/05/19 04:21:56;;;;;;;3.43;2.20;;;16.70;99.90;;;;;;5033674;28;20232;-59
2022/05/19 04:24:22;;;;;;;4.33;1.93;;;16.80;99.90;;;;;;5033810;28;20692;-59
2022/05/19 04:26:49;;;;;;;3.07;2.00;;;16.80;99.90;;;;;;5033417;28;20209;-58
2022/05/19 04:29:16;;;;;;;4.07;1.80;;;16.90;99.90;;;;;;5033324;28;20230;-59
2022/05/19 04:31:44;;;;;;;3.17;2.00;;;17.10;99.90;;;;;;5033577;28;20207;-58
2022/05/19 04:34:11;;;;;;;4.17;2.03;;;17.20;99.90;;;;;;5033500;28;20210;-58
2022/05/19 04:36:38;;;;;;;3.93;2.10;;;17.40;99.90;;;;;;5033042;28;20612;-59
2022/05/19 04:39:04;;;;;;;3.97;2.10;;;17.60;99.90;;;;;;5033149;28;20223;-59
2022/05/19 04:41:31;;;;;;;2.30;2.10;;;17.70;99.90;;;;;;5033154;28;20689;-58
2022/05/19 04:43:58;;;;;;;6.87;2.10;;;17.80;99.90;;;;;;5032914;28;20202;-59
2022/05/19 04:46:24;;;;;;;4.80;2.20;;;17.80;99.90;;;;;;5032537;28;20747;-59
2022/05/19 04:48:53;;;;;;;5.75;1.95;;;17.80;99.90;;;;;;5032886;28;20645;-58
2022/05/19 04:51:20;;;;;;;5.30;2.13;;;17.80;99.90;;;;;;5033146;28;20560;-58
2022/05/19 04:53:47;;;;;;;3.22;1.90;;;17.90;99.90;;;;;;5032889;28;20206;-58
2022/05/19 04:56:13;;;;;;;4.60;2.40;;;17.90;99.90;;;;;;5032393;28;20264;-60
2022/05/19 04:58:40;;;;;;;5.22;2.00;;;18.10;99.90;;;;;;5032987;28;20272;-59
2022/05/19 05:01:09;;;;;;;4.93;2.17;;;18.20;99.90;;;;;;5032991;28;20559;-59
2022/05/19 05:03:36;;;;;;;5.65;2.17;;;18.50;99.90;;;;;;5032792;28;20206;-60
2022/05/19 05:06:04;;;;;;;4.30;3.00;;;18.60;99.90;;;;;;5032445;28;20597;-58
2022/05/19 05:08:31;;;;;;;6.70;4.55;;;18.80;99.90;;;;;;5032433;28;20210;-58
2022/05/19 05:10:57;;;;;;;6.60;2.47;;;19.00;99.90;;;;;;5032910;28;20226;-58
2022/05/19 05:13:24;;;;;;;2.38;1.80;;;19.30;99.90;;;;;;5032498;28;20210;-59
2022/05/19 05:15:51;;;;;;;2.67;1.80;;;19.60;99.40;;;;;;5032090;28;20583;-59
2022/05/19 05:18:18;;;;;;;4.18;1.58;;;19.90;98.40;;;;;;5033077;28;20634;-59
2022/05/19 05:20:45;;;;;;;5.30;1.98;;;20.10;97.50;;;;;;5033676;28;20329;-56
2022/05/19 05:23:14;;;;;;;3.38;1.63;;;20.20;97.40;;;;;;5032531;28;20213;-57
2022/05/19 05:25:41;;;;;;;2.97;1.85;;;20.50;97.20;;;;;;5032156;28;21016;-57
2022/05/19 05:28:08;;;;;;;2.95;1.95;;;21.00;95.50;;;;;;5032578;28;20690;-57
2022/05/19 05:30:35;;;;;;;4.43;2.10;;;21.70;94.60;;;;;;5032139;28;20276;-57
2022/05/19 05:33:07;;;;;;;4.25;1.95;;;22.80;93.10;;;;;;5032357;28;20268;-56
2022/05/19 05:35:34;;;;;;;5.50;1.95;;;24.00;91.30;;;;;;5031899;28;20202;-57
2022/05/19 05:38:01;;;;;;;3.28;1.80;;;25.10;88.90;;;;;;5031616;28;20258;-56
2022/05/19 05:40:29;;;;;;;6.95;1.80;;;26.10;84.50;;;;;;5031719;28;20222;-56
2022/05/19 05:42:56;;;;;;;3.28;1.90;;;26.80;79.60;;;;;;5032163;28;20214;-58
2022/05/19 05:45:23;;;;;;;6.80;1.90;;;26.60;78.20;;;;;;5031526;28;20670;-57
2022/05/19 05:47:49;;;;;;;10.35;2.50;;;26.70;77.50;;;;;;5031908;28;20217;-57
2022/05/19 05:50:16;;;;;;;6.45;2.10;;;27.20;75.80;;;;;;5031946;28;20238;-57
2022/05/19 05:52:43;;;;;;;4.07;2.00;;;27.70;73.20;;;;;;5031924;28;20213;-57
2022/05/19 05:55:10;;;;;;;4.70;1.90;;;28.20;71.10;;;;;;5031990;28;20214;-56
2022/05/19 05:57:39;;;;;;;2.00;1.45;;;28.70;67.00;;;;;;5031705;28;20214;-57
2022/05/19 06:00:07;;;;;;;2.92;1.50;;;28.80;65.60;;;;;;5032227;28;20226;-55
2022/05/19 06:02:34;;;;;;;2.85;1.95;;;28.70;65.40;;;;;;5031733;28;20213;-55
2022/05/19 06:05:01;;;;;;;4.03;2.08;;;28.80;64.40;;;;;;5031649;28;20206;-56
2022/05/19 06:07:29;;;;;;;3.63;2.10;;;29.10;63.00;;;;;;5031025;28;20217;-56
2022/05/19 06:09:56;;;;;;;4.30;2.08;;;29.40;62.30;;;;;;5033014;28;20706;-56
2022/05/19 06:12:23;;;;;;;3.55;1.60;;;30.00;60.90;;;;;;5035373;28;20634;-56
2022/05/19 06:14:53;;;;;;;4.97;1.95;;;30.60;59.00;;;;;;5034594;28;20227;-56
2022/05/19 06:17:19;;;;;;;4.88;1.98;;;31.10;57.80;;;;;;5033659;28;20213;-55
2022/05/19 06:19:46;;;;;;;3.58;1.65;;;31.70;56.20;;;;;;5031706;28;20607;-55
2022/05/19 06:22:13;;;;;;;8.93;1.90;;;32.20;54.90;;;;;;5031659;28;20212;-56
2022/05/19 06:24:40;;;;;;;3.80;1.77;;;32.70;54.00;;;;;;5031311;28;20208;-56
2022/05/19 06:27:06;;;;;;;3.22;1.60;;;33.20;52.80;;;;;;5031070;28;20214;-54
2022/05/19 06:29:33;;;;;;;2.90;2.05;;;33.80;51.60;;;;;;5031138;28;20230;-59
2022/05/19 06:32:01;;;;;;;5.10;2.10;;;34.00;52.20;;;;;;5031193;28;20630;-58
2022/05/19 06:34:28;;;;;;;4.10;1.80;;;33.80;51.40;;;;;;5031646;28;20252;-64
2022/05/19 06:36:56;;;;;;;4.00;1.90;;;33.70;51.10;;;;;;5031216;28;20213;-61
2022/05/19 06:39:22;;;;;;;3.90;1.80;;;33.70;50.40;;;;;;5031271;28;20226;-60
2022/05/19 06:42:01;;;;;;;3.38;1.95;;;33.80;50.20;;;;;;5031347;28;20358;-62
2022/05/19 06:44:29;;;;;;;4.53;2.15;;;33.80;50.30;;;;;;5031735;28;20210;-58
2022/05/19 06:46:56;;;;;;;2.45;1.80;;;33.90;50.20;;;;;;5030867;28;20297;-58
2022/05/19 06:49:25;;;;;;;5.55;1.70;;;34.20;49.50;;;;;;5031244;28;20222;-58
2022/05/19 06:51:51;;;;;;;4.05;1.80;;;34.60;48.80;;;;;;5031083;28;20206;-58
2022/05/19 06:54:19;;;;;;;3.70;1.73;;;34.60;48.50;;;;;;5031252;28;20218;-60
2022/05/19 06:56:45;;;;;;;5.65;1.95;;;34.60;48.50;;;;;;5030915;28;20210;-57
2022/05/19 06:59:15;;;;;;;3.40;1.60;;;34.90;48.10;;;;;;5030811;28;20230;-57
2022/05/19 07:01:42;;;;;;;5.63;1.70;;;34.80;47.70;;;;;;5030720;28;20206;-57
2022/05/19 07:04:09;;;;;;;3.17;1.73;;;34.40;48.60;;;;;;5031019;28;20210;-57
2022/05/19 07:06:37;;;;;;;2.40;1.65;;;34.20;48.50;;;;;;5030822;28;20203;-60
2022/05/19 07:09:04;;;;;;;3.47;1.88;;;34.00;49.30;;;;;;5030809;28;20291;-60
2022/05/19 07:11:31;;;;;;;3.00;1.90;;;34.40;49.00;;;;;;5030908;28;20231;-59
2022/05/19 07:13:59;;;;;;;2.38;1.40;;;35.00;47.90;;;;;;5030752;28;20206;-59
2022/05/19 07:16:27;;;;;;;4.07;1.88;;;35.60;47.30;;;;;;5032054;28;20213;-55
2022/05/19 07:20:43;;;;;;;2.85;1.80;;;35.80;46.90;;;;;;5033825;28;20295;-55
2022/05/19 07:21:43;;;;;;;3.60;1.70;;;35.80;47.00;;;;;;5035656;28;20304;-53
2022/05/19 07:24:14;;;;;;;5.50;1.83;;;36.50;46.50;;;;;;5035697;28;20210;-53
2022/05/19 07:26:41;;;;;;;5.60;1.80;;;36.70;46.10;;;;;;5034221;28;20624;-53
2022/05/19 07:29:08;;;;;;;4.20;1.55;;;36.70;45.80;;;;;;5034508;28;20223;-53
2022/05/19 07:31:35;;;;;;;3.88;1.77;;;36.80;45.70;;;;;;5034526;28;20230;-53
2022/05/19 07:34:01;;;;;;;3.25;1.60;;;37.00;45.50;;;;;;5034417;28;20202;-53
2022/05/19 07:36:28;;;;;;;2.13;1.65;;;37.60;44.90;;;;;;5034065;28;20701;-53
2022/05/19 07:38:59;;;;;;;3.58;2.00;;;38.10;44.20;;;;;;5034150;28;20226;-54
2022/05/19 07:41:26;;;;;;;2.22;1.60;;;38.20;44.20;;;;;;5034458;28;20206;-54
2022/05/19 07:43:53;;;;;;;3.58;1.70;;;38.40;43.90;;;;;;5034358;28;20210;-54
2022/05/19 07:46:20;;;;;;;3.40;1.60;;;38.30;44.10;;;;;;5034020;28;20210;-54
2022/05/19 07:48:47;;;;;;;3.42;1.63;;;38.70;43.70;;;;;;5033991;28;20775;-53
2022/05/19 07:51:14;;;;;;;3.85;1.85;;;39.40;42.90;;;;;;5033917;28;20702;-55
2022/05/19 07:53:40;;;;;;;2.83;1.63;;;40.30;41.90;;;;;;5034086;28;20652;-57
2022/05/19 07:56:09;;;;;;;2.85;1.75;;;41.00;40.70;;;;;;5033841;28;20217;-56
2022/05/19 07:58:35;;;;;;;4.45;1.67;;;41.80;40.30;;;;;;5034051;28;20202;-58
2022/05/19 08:01:03;;;;;;;4.05;1.75;;;42.30;39.10;;;;;;5033924;28;20202;-57
2022/05/19 08:03:29;;;;;;;5.85;1.65;;;42.50;39.00;;;;;;5033943;28;20205;-58
2022/05/19 08:05:56;;;;;;;2.35;1.50;;;42.90;38.70;;;;;;5033478;28;20212;-56
2022/05/19 08:08:23;;;;;;;3.50;1.70;;;43.30;38.40;;;;;;5033984;28;20209;-57
2022/05/19 08:10:49;;;;;;;4.35;2.03;;;43.40;37.70;;;;;;5033491;28;20237;-57
2022/05/19 08:16:01;;;;;;;4.10;1.60;;;43.60;36.90;;;;;;5033379;28;20208;-57
2022/05/19 08:18:28;;;;;;;2.95;1.67;;;43.70;36.50;;;;;;5033367;28;20209;-57
2022/05/19 08:20:58;;;;;;;3.80;1.60;;;43.80;36.40;;;;;;5033922;28;20202;-57
2022/05/19 08:23:26;;;;;;;2.38;1.52;;;44.00;35.90;;;;;;5033720;28;20229;-57
2022/05/19 08:25:53;;;;;;;2.08;1.42;;;43.90;36.20;;;;;;5033817;28;20210;-56
2022/05/19 08:28:28;;;;;;;3.20;1.50;;;43.80;36.30;;;;;;5033437;28;20692;-56
2022/05/19 08:30:57;;;;;;;5.63;1.73;;;43.70;36.50;;;;;;5032817;28;20229;-56
2022/05/19 08:33:24;;;;;;;6.72;1.90;;;43.20;36.20;;;;;;5033477;28;20221;-57
2022/05/19 08:35:51;;;;;;;2.28;1.58;;;42.70;37.00;;;;;;5033139;28;20209;-57
2022/05/19 08:38:18;;;;;;;2.20;1.88;;;42.10;37.70;;;;;;5033363;28;20216;-56
2022/05/19 08:40:50;;;;;;;2.97;1.58;;;41.00;38.60;;;;;;5033141;28;20230;-57
2022/05/19 08:43:19;;;;;;;3.83;1.80;;;39.50;40.10;;;;;;5033118;28;20634;-57
2022/05/19 08:45:51;;;;;;;2.90;1.58;;;38.10;42.00;;;;;;5033242;28;20584;-57
2022/05/19 08:48:21;;;;;;;5.70;1.77;;;36.70;43.40;;;;;;5033096;28;20256;-56
2022/05/19 08:50:51;;;;;;;3.00;1.55;;;35.20;45.70;;;;;;5032822;28;20244;-57
2022/05/19 08:53:19;;;;;;;3.80;1.83;;;34.10;47.10;;;;;;5032955;28;20217;-56
2022/05/19 08:55:51;;;;;;;5.10;2.00;;;33.20;49.00;;;;;;5032629;28;20213;-57
2022/05/19 08:58:34;;;;;;;3.15;2.00;;;32.60;50.60;;;;;;5033007;28;20663;-56
2022/05/19 09:01:11;;;;;;;4.43;1.83;;;32.00;51.10;;;;;;5033058;28;20206;-57
2022/05/19 09:03:45;;;;;;;3.00;1.92;;;31.60;52.40;;;;;;5032681;28;20210;-57
2022/05/19 09:06:33;;;;;;;4.45;1.77;;;31.20;52.90;;;;;;5032398;28;20300;-57
2022/05/19 09:09:16;;;;;;;3.97;1.83;;;30.90;53.30;;;;;;5032485;28;20250;-56
2022/05/19 09:11:51;;;;;;;7.28;2.10;;;30.70;54.00;;;;;;5032494;28;20229;-57
2022/05/19 09:14:21;;;;;;;4.00;2.08;;;30.50;54.30;;;;;;5032645;28;20224;-57
2022/05/19 09:16:51;;;;;;;3.40;2.00;;;30.40;55.40;;;;;;5032247;28;20218;-57
2022/05/19 09:19:22;;;;;;;3.83;1.88;;;29.90;56.80;;;;;;5032564;28;20227;-58
2022/05/19 09:21:58;;;;;;;3.08;2.20;;;29.40;57.70;;;;;;5032396;28;20571;-56
2022/05/19 09:24:24;;;;;;;3.67;1.92;;;29.00;58.40;;;;;;5032211;28;20638;-56
2022/05/19 09:26:54;;;;;;;2.10;1.83;;;29.00;58.50;;;;;;5032132;28;20205;-57
2022/05/19 09:29:23;;;;;;;3.50;1.80;;;29.10;58.00;;;;;;5032157;28;20230;-57
2022/05/19 09:31:54;;;;;;;3.10;1.70;;;29.30;58.20;;;;;;5032187;28;20230;-57
2022/05/19 09:34:24;;;;;;;3.35;2.28;;;29.50;57.30;;;;;;5032348;28;20209;-57
2022/05/19 09:37:06;;;;;;;4.57;1.83;;;29.70;57.40;;;;;;5031961;28;20667;-57
2022/05/19 09:39:42;;;;;;;3.53;2.17;;;30.00;56.90;;;;;;5032097;28;20646;-57
2022/05/19 09:42:12;;;;;;;3.88;2.13;;;30.20;56.80;;;;;;5031761;28;20205;-57
2022/05/19 09:44:44;;;;;;;5.75;2.10;;;30.30;56.40;;;;;;5032044;28;20233;-57
2022/05/19 09:47:24;;;;;;;5.60;2.25;;;30.40;56.00;;;;;;5031837;28;20210;-57
2022/05/19 09:49:55;;;;;;;3.17;1.70;;;30.40;55.90;;;;;;5031856;28;20229;-57
2022/05/19 09:52:26;;;;;;;5.05;1.95;;;30.50;56.20;;;;;;5031613;28;20249;-57
2022/05/19 09:54:56;;;;;;;3.53;2.15;;;30.50;55.90;;;;;;5032005;28;20675;-56
2022/05/19 09:57:27;;;;;;;2.75;1.83;;;30.40;55.40;;;;;;5031744;28;20317;-57
2022/05/19 09:59:59;;;;;;;3.15;2.00;;;30.30;54.90;;;;;;5031890;28;20234;-57
2022/05/19 10:02:36;;;;;;;3.30;1.90;;;30.20;55.30;;;;;;5031663;28;20293;-56
2022/05/19 10:05:18;;;;;;;5.18;2.08;;;30.20;54.70;;;;;;5032261;28;20210;-56
2022/05/19 10:07:49;;;;;;;4.45;1.90;;;30.30;54.70;;;;;;5031446;28;20582;-56
2022/05/19 10:10:20;;;;;;;4.82;2.30;;;30.50;54.60;;;;;;5032208;28;20249;-56
2022/05/19 10:12:49;;;;;;;3.28;2.03;;;30.60;57.30;;;;;;5031725;28;20317;-57
2022/05/19 10:15:20;;;;;;;3.17;2.08;;;30.80;57.00;;;;;;5031617;28;20737;-56
2022/05/19 10:18:00;;;;;;;4.47;2.35;;;31.10;56.20;;;;;;5031500;28;20210;-56
2022/05/19 10:20:30;;;;;;;5.63;2.30;;;31.30;56.00;;;;;;5031989;28;20257;-57
2022/05/19 10:23:08;;;;;;;5.43;2.10;;;31.40;55.60;;;;;;5031931;28;20213;-56
2022/05/19 10:26:03;;;;;;;3.80;2.15;;;31.40;56.00;;;;;;5031764;28;20279;-57
2022/05/19 10:31:37;;;;;;;3.05;1.80;;;31.40;56.60;;;;;;5031757;28;20326;-56
2022/05/19 10:34:25;;;;;;;5.75;2.15;;;31.40;56.10;;;;;;5031559;28;20288;-56
2022/05/19 10:37:01;;;;;;;4.30;3.10;;;31.20;56.00;;;;;;5031313;28;20292;-56
2022/05/19 10:39:51;;;;;;;4.75;2.42;;;31.10;56.90;;;;;;5031095;28;20241;-56
2022/05/19 10:42:25;;;;;;;3.60;2.03;;;30.90;56.10;;;;;;5031496;28;20198;-56
2022/05/19 10:45:10;;;;;;;5.53;2.33;;;30.80;57.40;;;;;;5031657;28;20210;-56
2022/05/19 10:47:47;;;;;;;3.28;1.90;;;30.80;57.40;;;;;;5031383;28;20217;-56
2022/05/19 10:50:28;;;;;;;2.90;2.20;;;31.00;56.80;;;;;;5031590;28;20258;-57
2022/05/19 10:53:20;;;;;;;4.50;2.42;;;31.10;57.00;;;;;;5032460;28;20233;-57
2022/05/19 10:56:00;;;;;;;7.68;3.25;;;31.20;57.20;;;;;;5035580;28;20264;-56
2022/05/19 10:59:09;;;;;;;6.07;2.05;;;31.30;57.70;;;;;;5035627;28;20210;-56
2022/05/19 11:01:48;;;;;;;4.68;2.28;;;31.40;57.10;;;;;;4955494;28;20208;-59
2022/05/19 11:04:51;;;;;;;5.72;2.80;;;31.60;57.10;;;;;;5030852;28;20214;-57
2022/05/19 11:07:33;;;;;;;2.53;2.00;;;31.80;57.10;;;;;;5035101;28;20209;-56
2022/05/19 11:10:13;;;;;;;2.88;1.90;;;32.00;55.90;;;;;;5042931;22;20234;-57
2022/05/19 11:12:47;;;;;;;5.57;2.03;;;32.30;55.60;;;;;;5026656;28;20586;-57
2022/05/19 11:15:22;;;;;;;4.15;2.28;;;32.50;55.20;;;;;;5034947;28;20233;-57
2022/05/19 11:18:01;;;;;;;7.85;2.47;;;32.60;54.90;;;;;;5034945;28;20280;-57
2022/05/19 11:20:32;;;;;;;5.03;2.13;;;32.60;55.80;;;;;;5034969;28;20250;-57
2022/05/19 11:23:06;;;;;;;2.60;1.80;;;32.70;55.10;;;;;;5034819;28;20253;-57
2022/05/19 11:28:33;;;;;;;4.82;2.17;;;32.80;55.20;;;;;;5034842;28;20288;-57
2022/05/19 11:31:06;;;;;;;6.78;2.40;;;32.80;55.00;;;;;;5034552;28;20237;-57
2022/05/19 11:33:39;;;;;;;5.57;2.28;;;33.00;54.80;;;;;;5034747;28;20214;-57
2022/05/19 11:36:11;;;;;;;4.03;2.20;;;33.20;54.90;;;;;;5034307;28;20210;-57
2022/05/19 11:38:46;;;;;;;6.93;2.67;;;33.30;54.30;;;;;;5034840;28;20191;-58
2022/05/19 11:41:16;;;;;;;3.90;2.13;;;33.30;55.00;;;;;;5034631;28;20205;-57
2022/05/19 11:43:46;;;;;;;2.63;2.13;;;33.00;55.30;;;;;;5034386;28;20305;-57
2022/05/19 11:46:16;;;;;;;3.85;2.30;;;32.80;56.10;;;;;;5034149;28;20217;-57
2022/05/19 11:57:21;;;;;;;3.90;2.17;;;32.50;57.10;;;;;;5033856;28;20229;-57
2022/05/19 11:59:50;;;;;;;3.95;2.17;;;32.50;56.70;;;;;;5034127;28;20233;-58
2022/05/19 12:02:26;;;;;;;4.82;2.10;;;32.50;56.80;;;;;;5034211;28;20199;-58
2022/05/19 12:05:00;;;;;;;3.90;2.03;;;32.50;56.60;;;;;;5033062;28;20260;-57
2022/05/19 12:07:41;;;;;;;4.15;2.08;;;32.50;57.00;;;;;;5033878;28;20210;-58
2022/05/19 12:10:12;;;;;;;3.88;2.30;;;32.60;56.80;;;;;;5033839;28;20238;-58
2022/05/19 12:12:44;;;;;;;3.80;2.38;;;32.60;57.20;;;;;;5034270;28;20233;-58
2022/05/19 12:15:21;;;;;;;3.65;2.22;;;32.70;56.90;;;;;;5033991;28;20209;-58
2022/05/19 12:17:55;;;;;;;3.90;2.20;;;32.70;57.20;;;;;;5033549;28;20263;-58
2022/05/19 12:20:50;;;;;;;4.57;2.25;;;32.70;56.50;;;;;;5033799;28;20288;-57
2022/05/19 12:23:26;;;;;;;4.35;2.50;;;32.80;56.30;;;;;;5033733;28;20289;-56
2022/05/19 12:25:58;;;;;;;3.63;2.40;;;32.80;56.80;;;;;;5034330;28;20213;-56
2022/05/19 12:28:32;;;;;;;6.80;2.40;;;32.70;56.90;;;;;;5033912;28;20637;-57
2022/05/19 12:33:56;;;;;;;3.47;2.03;;;32.40;57.10;;;;;;5023030;28;20206;-57
2022/05/19 12:36:37;;;;;;;4.93;2.33;;;32.40;57.10;;;;;;5033684;28;20671;-57
2022/05/19 12:39:29;;;;;;;7.03;2.75;;;32.50;56.70;;;;;;5033074;28;20584;-57
2022/05/19 12:41:58;;;;;;;4.28;2.20;;;32.60;57.40;;;;;;5033439;28;20206;-57
2022/05/19 12:44:39;;;;;;;4.22;2.03;;;32.70;56.90;;;;;;5033231;28;20206;-57
2022/05/19 12:47:10;;;;;;;6.18;2.28;;;32.60;57.00;;;;;;5032744;28;20358;-57
2022/05/19 12:49:37;;;;;;;5.07;2.38;;;32.70;57.60;;;;;;5033526;28;20277;-57
2022/05/19 12:52:10;;;;;;;5.38;2.28;;;32.60;57.60;;;;;;5033205;28;20226;-56
2022/05/19 12:54:52;;;;;;;5.15;2.20;;;32.50;57.80;;;;;;5033288;28;20268;-56
2022/05/19 12:57:30;;;;;;;7.63;2.33;;;32.60;58.20;;;;;;5032785;28;20260;-57
2022/05/19 13:00:12;;;;;;;2.60;1.98;;;32.60;58.10;;;;;;5032481;28;20597;-57
2022/05/19 13:02:45;;;;;;;4.10;2.47;;;32.70;57.50;;;;;;5033162;28;20198;-56
2022/05/19 13:05:22;;;;;;;5.25;2.40;;;32.80;57.70;;;;;;5032994;28;20666;-57
2022/05/19 13:07:55;;;;;;;5.07;2.38;;;32.90;57.60;;;;;;5032754;28;20289;-57
2022/05/19 13:10:25;;;;;;;3.80;2.33;;;32.90;57.70;;;;;;5032744;28;20337;-57
2022/05/19 13:13:00;;;;;;;7.63;2.30;;;32.80;57.70;;;;;;5032755;28;20545;-57
2022/05/19 13:15:29;;;;;;;4.57;2.45;;;32.90;57.90;;;;;;5032866;28;20213;-57
2022/05/19 13:17:58;;;;;;;4.97;2.42;;;32.70;58.20;;;;;;5032073;28;20206;-57
2022/05/19 13:20:27;;;;;;;4.60;2.40;;;32.80;58.30;;;;;;5032597;28;20230;-57
2022/05/19 13:22:59;;;;;;;4.07;2.42;;;32.80;58.60;;;;;;5033000;28;20264;-58